sensor_id;sensor_type;location;lat;lon;timestamp;pressure;altitude;pressure_sealevel;temperature;humidity
40850;BME280;26571;41.610;25.380;2023-04-07T00:00:52;98066.16;;;8.59;40.64
40850;BME280;26571;41.610;25.380;2023-04-07T00:03:17;98050.75;;;8.64;40.46
40850;BME280;26571;41.610;25.380;2023-04-07T00:05:42;98059.59;;;8.63;41.25
40850;BME280;26571;41.610;25.380;2023-04-07T00:08:08;98048.94;;;8.65;41.23
40850;BME280;26571;41.610;25.380;2023-04-07T00:10:33;98051.91;;;8.62;40.71
40850;BME280;26571;41.610;25.380;2023-04-07T00:12:59;98055.69;;;8.67;41.05
40850;BME280;26571;41.610;25.380;2023-04-07T00:15:24;98058.00;;;8.70;41.33
40850;BME280;26571;41.610;25.380;2023-04-07T00:17:50;98059.59;;;8.63;40.72
40850;BME280;26571;41.610;25.380;2023-04-07T00:20:15;98050.75;;;8.64;41.11
40850;BME280;26571;41.610;25.380;2023-04-07T00:22:41;98057.16;;;8.62;41.28
40850;BME280;26571;41.610;25.380;2023-04-07T00:25:06;98067.16;;;8.66;41.30
40850;BME280;26571;41.610;25.380;2023-04-07T00:27:32;98054.88;;;8.67;41.28
40850;BME280;26571;41.610;25.380;2023-04-07T00:29:57;98057.31;;;8.52;40.94
40850;BME280;26571;41.610;25.380;2023-04-07T00:32:22;98050.44;;;8.51;40.58
40850;BME280;26571;41.610;25.380;2023-04-07T00:34:48;98055.47;;;8.44;40.49
40850;BME280;26571;41.610;25.380;2023-04-07T00:37:13;98047.41;;;8.29;40.91
40850;BME280;26571;41.610;25.380;2023-04-07T00:39:38;98055.44;;;8.28;40.43
40850;BME280;26571;41.610;25.380;2023-04-07T00:42:04;98058.53;;;8.23;41.10
40850;BME280;26571;41.610;25.380;2023-04-07T00:44:31;98059.69;;;8.29;41.14
40850;BME280;26571;41.610;25.380;2023-04-07T00:46:56;98056.06;;;8.30;40.60
40850;BME280;26571;41.610;25.380;2023-04-07T00:49:22;98059.84;;;8.27;40.81
40850;BME280;26571;41.610;25.380;2023-04-07T00:51:47;98054.25;;;8.14;40.70
40850;BME280;26571;41.610;25.380;2023-04-07T00:54:13;98050.16;;;8.12;41.62
40850;BME280;26571;41.610;25.380;2023-04-07T00:56:38;98056.19;;;7.96;40.82
40850;BME280;26571;41.610;25.380;2023-04-07T00:59:04;98049.91;;;7.89;41.41
40850;BME280;26571;41.610;25.380;2023-04-07T01:01:31;98051.19;;;7.85;41.26
40850;BME280;26571;41.610;25.380;2023-04-07T01:04:03;98054.78;;;7.75;41.94
40850;BME280;26571;41.610;25.380;2023-04-07T01:06:30;98054.00;;;7.83;42.44
40850;BME280;26571;41.610;25.380;2023-04-07T01:11:40;98056.47;;;7.93;42.22
40850;BME280;26571;41.610;25.380;2023-04-07T01:14:06;98061.06;;;7.91;42.31
40850;BME280;26571;41.610;25.380;2023-04-07T01:16:38;98064.66;;;7.90;42.23
40850;BME280;26571;41.610;25.380;2023-04-07T01:19:13;98063.84;;;7.89;42.39
40850;BME280;26571;41.610;25.380;2023-04-07T01:21:40;98061.03;;;7.83;41.26
40850;BME280;26571;41.610;25.380;2023-04-07T01:26:55;98066.28;;;7.83;42.10
40850;BME280;26571;41.610;25.380;2023-04-07T01:31:49;98063.97;;;7.80;41.71
40850;BME280;26571;41.610;25.380;2023-04-07T01:34:15;98068.66;;;7.68;42.04
40850;BME280;26571;41.610;25.380;2023-04-07T01:36:41;98061.84;;;7.49;42.42
40850;BME280;26571;41.610;25.380;2023-04-07T01:39:07;98071.09;;;7.35;42.40
40850;BME280;26571;41.610;25.380;2023-04-07T01:41:33;98074.28;;;7.21;42.44
40850;BME280;26571;41.610;25.380;2023-04-07T01:43:59;98073.09;;;7.15;42.95
40850;BME280;26571;41.610;25.380;2023-04-07T01:46:25;98078.34;;;7.15;43.69
40850;BME280;26571;41.610;25.380;2023-04-07T01:48:51;98079.78;;;7.10;44.00
40850;BME280;26571;41.610;25.380;2023-04-07T01:51:16;98073.44;;;7.12;44.08
40850;BME280;26571;41.610;25.380;2023-04-07T01:53:46;98078.97;;;7.09;44.70
40850;BME280;26571;41.610;25.380;2023-04-07T01:56:12;98078.03;;;7.18;45.34
40850;BME280;26571;41.610;25.380;2023-04-07T01:58:37;98083.19;;;7.28;44.95
40850;BME280;26571;41.610;25.380;2023-04-07T02:01:03;98081.38;;;7.29;44.22
40850;BME280;26571;41.610;25.380;2023-04-07T02:03:30;98085.44;;;7.23;44.63
40850;BME280;26571;41.610;25.380;2023-04-07T02:05:56;98089.25;;;7.29;45.54
40850;BME280;26571;41.610;25.380;2023-04-07T02:08:26;98081.75;;;7.34;44.99
40850;BME280;26571;41.610;25.380;2023-04-07T02:10:52;98080.81;;;7.43;45.51
40850;BME280;26571;41.610;25.380;2023-04-07T02:13:19;98074.94;;;7.49;45.68
40850;BME280;26571;41.610;25.380;2023-04-07T02:15:44;98078.91;;;7.53;46.10
40850;BME280;26571;41.610;25.380;2023-04-07T02:18:11;98079.78;;;7.62;44.47
40850;BME280;26571;41.610;25.380;2023-04-07T02:20:37;98075.50;;;7.61;45.03
40850;BME280;26571;41.610;25.380;2023-04-07T02:23:06;98075.53;;;7.69;44.90
40850;BME280;26571;41.610;25.380;2023-04-07T02:25:31;98080.28;;;7.65;45.23
40850;BME280;26571;41.610;25.380;2023-04-07T02:27:57;98077.00;;;7.63;44.40
40850;BME280;26571;41.610;25.380;2023-04-07T02:30:23;98082.50;;;7.52;45.75
40850;BME280;26571;41.610;25.380;2023-04-07T02:32:48;98083.00;;;7.56;45.97
40850;BME280;26571;41.610;25.380;2023-04-07T02:35:14;98084.81;;;7.55;45.88
40850;BME280;26571;41.610;25.380;2023-04-07T02:37:40;98085.03;;;7.62;46.69
40850;BME280;26571;41.610;25.380;2023-04-07T02:40:06;98092.41;;;7.66;47.17
40850;BME280;26571;41.610;25.380;2023-04-07T02:42:31;98086.50;;;7.64;47.73
40850;BME280;26571;41.610;25.380;2023-04-07T02:44:57;98087.34;;;7.73;46.40
40850;BME280;26571;41.610;25.380;2023-04-07T02:47:22;98094.34;;;7.64;46.78
40850;BME280;26571;41.610;25.380;2023-04-07T02:49:48;98093.69;;;7.62;46.66
40850;BME280;26571;41.610;25.380;2023-04-07T02:52:13;98092.72;;;7.63;47.15
40850;BME280;26571;41.610;25.380;2023-04-07T02:54:38;98097.13;;;7.63;46.89
40850;BME280;26571;41.610;25.380;2023-04-07T02:57:03;98086.13;;;7.59;47.90
40850;BME280;26571;41.610;25.380;2023-04-07T02:59:29;98092.34;;;7.58;47.85
40850;BME280;26571;41.610;25.380;2023-04-07T03:01:54;98091.06;;;7.62;48.86
40850;BME280;26571;41.610;25.380;2023-04-07T03:04:20;98096.84;;;7.66;48.65
40850;BME280;26571;41.610;25.380;2023-04-07T03:06:45;98097.69;;;7.74;47.37
40850;BME280;26571;41.610;25.380;2023-04-07T03:09:10;98094.34;;;7.64;47.81
40850;BME280;26571;41.610;25.380;2023-04-07T03:11:36;98097.03;;;7.72;46.66
40850;BME280;26571;41.610;25.380;2023-04-07T03:14:01;98098.13;;;7.70;46.92
40850;BME280;26571;41.610;25.380;2023-04-07T03:16:26;98101.75;;;7.69;48.12
40850;BME280;26571;41.610;25.380;2023-04-07T03:18:52;98103.53;;;7.68;48.72
40850;BME280;26571;41.610;25.380;2023-04-07T03:21:17;98108.72;;;7.60;49.38
40850;BME280;26571;41.610;25.380;2023-04-07T03:23:42;98110.06;;;7.64;49.49
40850;BME280;26571;41.610;25.380;2023-04-07T03:26:07;98107.09;;;7.59;50.43
40850;BME280;26571;41.610;25.380;2023-04-07T03:28:33;98109.41;;;7.62;49.50
40850;BME280;26571;41.610;25.380;2023-04-07T03:30:58;98107.63;;;7.63;49.09
40850;BME280;26571;41.610;25.380;2023-04-07T03:33:23;98111.22;;;7.62;48.59
40850;BME280;26571;41.610;25.380;2023-04-07T03:35:48;98107.44;;;7.56;49.12
40850;BME280;26571;41.610;25.380;2023-04-07T03:38:14;98110.69;;;7.58;50.29
40850;BME280;26571;41.610;25.380;2023-04-07T03:40:39;98107.44;;;7.56;51.27
40850;BME280;26571;41.610;25.380;2023-04-07T03:43:04;98118.50;;;7.50;51.18
40850;BME280;26571;41.610;25.380;2023-04-07T03:45:32;98115.53;;;7.45;51.70
40850;BME280;26571;41.610;25.380;2023-04-07T03:47:57;98124.09;;;7.55;50.39
40850;BME280;26571;41.610;25.380;2023-04-07T03:50:22;98122.63;;;7.53;50.77
40850;BME280;26571;41.610;25.380;2023-04-07T03:52:48;98128.88;;;7.60;51.36
40850;BME280;26571;41.610;25.380;2023-04-07T03:55:13;98136.34;;;7.46;51.49
40850;BME280;26571;41.610;25.380;2023-04-07T03:57:38;98142.13;;;7.58;49.74
40850;BME280;26571;41.610;25.380;2023-04-07T04:00:04;98140.50;;;7.57;48.50
40850;BME280;26571;41.610;25.380;2023-04-07T04:02:29;98145.38;;;7.52;48.43
40850;BME280;26571;41.610;25.380;2023-04-07T04:04:54;98149.28;;;7.48;47.10
40850;BME280;26571;41.610;25.380;2023-04-07T04:07:20;98154.88;;;7.53;46.59
40850;BME280;26571;41.610;25.380;2023-04-07T04:09:45;98146.84;;;7.55;47.20
40850;BME280;26571;41.610;25.380;2023-04-07T04:12:10;98127.13;;;7.42;46.14
40850;BME280;26571;41.610;25.380;2023-04-07T04:14:36;98152.25;;;7.53;45.90
40850;BME280;26571;41.610;25.380;2023-04-07T04:17:01;98154.88;;;7.53;46.26
40850;BME280;26571;41.610;25.380;2023-04-07T04:19:26;98156.84;;;7.51;46.44
40850;BME280;26571;41.610;25.380;2023-04-07T04:21:51;98155.50;;;7.47;45.93
40850;BME280;26571;41.610;25.380;2023-04-07T04:24:17;98168.25;;;7.50;46.60
40850;BME280;26571;41.610;25.380;2023-04-07T04:26:42;98169.16;;;7.59;46.04
40850;BME280;26571;41.610;25.380;2023-04-07T04:29:07;98172.94;;;7.64;46.88
40850;BME280;26571;41.610;25.380;2023-04-07T04:31:32;98171.31;;;7.63;46.84
40850;BME280;26571;41.610;25.380;2023-04-07T04:33:58;98175.63;;;7.72;46.21
40850;BME280;26571;41.610;25.380;2023-04-07T04:36:23;98178.41;;;7.71;46.84
40850;BME280;26571;41.610;25.380;2023-04-07T04:38:48;98173.03;;;7.81;46.29
40850;BME280;26571;41.610;25.380;2023-04-07T04:41:14;98186.31;;;7.79;46.69
40850;BME280;26571;41.610;25.380;2023-04-07T04:43:39;98185.19;;;7.82;47.66
40850;BME280;26571;41.610;25.380;2023-04-07T04:46:04;98183.41;;;7.90;46.91
40850;BME280;26571;41.610;25.380;2023-04-07T04:48:30;98191.13;;;7.92;46.93
40850;BME280;26571;41.610;25.380;2023-04-07T04:50:55;98195.22;;;7.94;47.39
40850;BME280;26571;41.610;25.380;2023-04-07T04:53:20;98196.28;;;8.01;45.86
40850;BME280;26571;41.610;25.380;2023-04-07T04:55:46;98191.16;;;8.00;44.56
40850;BME280;26571;41.610;25.380;2023-04-07T04:58:15;98197.72;;;7.96;43.80
40850;BME280;26571;41.610;25.380;2023-04-07T05:00:41;98192.78;;;7.93;44.34
40850;BME280;26571;41.610;25.380;2023-04-07T05:03:06;98195.13;;;8.04;44.63
40850;BME280;26571;41.610;25.380;2023-04-07T05:05:31;98197.78;;;8.12;45.05
40850;BME280;26571;41.610;25.380;2023-04-07T05:07:56;98207.66;;;8.18;44.38
40850;BME280;26571;41.610;25.380;2023-04-07T05:10:22;98212.25;;;8.24;44.71
40850;BME280;26571;41.610;25.380;2023-04-07T05:12:47;98210.72;;;8.40;43.00
40850;BME280;26571;41.610;25.380;2023-04-07T05:15:12;98209.38;;;8.36;43.31
40850;BME280;26571;41.610;25.380;2023-04-07T05:17:39;98207.06;;;8.33;44.27
40850;BME280;26571;41.610;25.380;2023-04-07T05:20:07;98215.00;;;8.41;44.82
40850;BME280;26571;41.610;25.380;2023-04-07T05:22:33;98219.28;;;8.42;45.86
40850;BME280;26571;41.610;25.380;2023-04-07T05:24:58;98218.63;;;8.48;45.87
40850;BME280;26571;41.610;25.380;2023-04-07T05:27:23;98218.31;;;8.51;44.70
40850;BME280;26571;41.610;25.380;2023-04-07T05:29:49;98226.19;;;8.51;43.83
40850;BME280;26571;41.610;25.380;2023-04-07T05:32:14;98225.16;;;8.44;44.35
40850;BME280;26571;41.610;25.380;2023-04-07T05:34:40;98228.00;;;8.24;44.80
40850;BME280;26571;41.610;25.380;2023-04-07T05:37:05;98227.00;;;8.17;46.08
40850;BME280;26571;41.610;25.380;2023-04-07T05:39:30;98225.25;;;8.26;46.43
40850;BME280;26571;41.610;25.380;2023-04-07T05:41:55;98226.44;;;8.40;46.23
40850;BME280;26571;41.610;25.380;2023-04-07T05:44:21;98223.38;;;8.44;46.34
40850;BME280;26571;41.610;25.380;2023-04-07T05:46:46;98222.59;;;8.52;46.68
40850;BME280;26571;41.610;25.380;2023-04-07T05:49:12;98226.53;;;8.56;46.34
40850;BME280;26571;41.610;25.380;2023-04-07T05:51:38;98224.25;;;8.61;46.95
40850;BME280;26571;41.610;25.380;2023-04-07T05:54:03;98231.53;;;8.75;46.81
40850;BME280;26571;41.610;25.380;2023-04-07T05:56:28;98230.53;;;8.85;45.33
40850;BME280;26571;41.610;25.380;2023-04-07T05:58:53;98223.34;;;8.87;44.60
40850;BME280;26571;41.610;25.380;2023-04-07T06:01:19;98220.38;;;8.90;43.15
40850;BME280;26571;41.610;25.380;2023-04-07T06:03:44;98220.09;;;9.01;44.25
40850;BME280;26571;41.610;25.380;2023-04-07T06:06:09;98228.78;;;9.10;44.53
40850;BME280;26571;41.610;25.380;2023-04-07T06:08:35;98234.56;;;9.38;43.80
40850;BME280;26571;41.610;25.380;2023-04-07T06:11:00;98233.91;;;9.68;42.27
40850;BME280;26571;41.610;25.380;2023-04-07T06:13:26;98237.88;;;9.80;41.60
40850;BME280;26571;41.610;25.380;2023-04-07T06:15:53;98230.63;;;9.82;41.22
40850;BME280;26571;41.610;25.380;2023-04-07T06:18:18;98235.88;;;9.74;40.64
40850;BME280;26571;41.610;25.380;2023-04-07T06:20:43;98245.09;;;9.78;41.07
40850;BME280;26571;41.610;25.380;2023-04-07T06:23:09;98241.81;;;9.76;40.46
40850;BME280;26571;41.610;25.380;2023-04-07T06:25:34;98246.06;;;9.69;40.91
40850;BME280;26571;41.610;25.380;2023-04-07T06:27:59;98247.56;;;9.55;42.02
40850;BME280;26571;41.610;25.380;2023-04-07T06:30:25;98244.44;;;9.60;42.98
40850;BME280;26571;41.610;25.380;2023-04-07T06:32:50;98253.00;;;9.70;42.35
40850;BME280;26571;41.610;25.380;2023-04-07T06:35:15;98263.00;;;9.67;41.22
40850;BME280;26571;41.610;25.380;2023-04-07T06:37:41;98260.19;;;9.68;42.79
40850;BME280;26571;41.610;25.380;2023-04-07T06:40:06;98263.16;;;9.73;43.76
40850;BME280;26571;41.610;25.380;2023-04-07T06:42:31;98264.63;;;9.84;42.59
40850;BME280;26571;41.610;25.380;2023-04-07T06:44:57;98271.69;;;9.92;42.62
40850;BME280;26571;41.610;25.380;2023-04-07T06:47:22;98273.00;;;9.79;40.95
40850;BME280;26571;41.610;25.380;2023-04-07T06:49:48;98280.41;;;9.76;41.52
40850;BME280;26571;41.610;25.380;2023-04-07T06:52:13;98275.97;;;9.76;41.54
40850;BME280;26571;41.610;25.380;2023-04-07T06:54:38;98285.19;;;9.72;42.25
40850;BME280;26571;41.610;25.380;2023-04-07T06:57:03;98282.88;;;9.86;43.15
40850;BME280;26571;41.610;25.380;2023-04-07T06:59:30;98290.44;;;9.97;43.43
40850;BME280;26571;41.610;25.380;2023-04-07T07:01:55;98296.34;;;10.07;42.10
40850;BME280;26571;41.610;25.380;2023-04-07T07:04:21;98293.22;;;10.12;41.39
40850;BME280;26571;41.610;25.380;2023-04-07T07:06:46;98289.59;;;10.13;41.84
40850;BME280;26571;41.610;25.380;2023-04-07T07:09:11;98297.78;;;10.18;40.70
40850;BME280;26571;41.610;25.380;2023-04-07T07:11:37;98294.38;;;10.25;41.30
40850;BME280;26571;41.610;25.380;2023-04-07T07:14:02;98292.06;;;10.30;41.59
40850;BME280;26571;41.610;25.380;2023-04-07T07:16:27;98300.09;;;10.29;40.10
40850;BME280;26571;41.610;25.380;2023-04-07T07:18:53;98307.53;;;10.01;38.42
40850;BME280;26571;41.610;25.380;2023-04-07T07:21:19;98307.66;;;9.99;39.19
40850;BME280;26571;41.610;25.380;2023-04-07T07:23:45;98310.47;;;10.06;38.35
40850;BME280;26571;41.610;25.380;2023-04-07T07:26:10;98318.38;;;10.06;38.40
40850;BME280;26571;41.610;25.380;2023-04-07T07:28:35;98317.69;;;10.04;38.28
40850;BME280;26571;41.610;25.380;2023-04-07T07:31:07;98320.00;;;10.15;37.80
40850;BME280;26571;41.610;25.380;2023-04-07T07:33:34;98321.31;;;10.27;39.38
40850;BME280;26571;41.610;25.380;2023-04-07T07:35:59;98318.34;;;10.22;40.50
40850;BME280;26571;41.610;25.380;2023-04-07T07:38:24;98320.16;;;10.38;40.35
40850;BME280;26571;41.610;25.380;2023-04-07T07:40:51;98314.38;;;10.43;36.69
40850;BME280;26571;41.610;25.380;2023-04-07T07:43:17;98319.00;;;10.41;36.73
40850;BME280;26571;41.610;25.380;2023-04-07T07:45:42;98323.63;;;10.30;38.03
40850;BME280;26571;41.610;25.380;2023-04-07T07:48:07;98323.25;;;10.50;37.83
40850;BME280;26571;41.610;25.380;2023-04-07T07:50:32;98328.09;;;10.77;37.70
40850;BME280;26571;41.610;25.380;2023-04-07T07:52:58;98329.66;;;11.03;37.75
40850;BME280;26571;41.610;25.380;2023-04-07T07:55:23;98325.16;;;11.11;36.78
40850;BME280;26571;41.610;25.380;2023-04-07T07:57:48;98330.53;;;10.87;35.79
40850;BME280;26571;41.610;25.380;2023-04-07T08:00:13;98334.03;;;10.79;36.00
40850;BME280;26571;41.610;25.380;2023-04-07T08:02:39;98328.41;;;10.82;36.01
40850;BME280;26571;41.610;25.380;2023-04-07T08:05:05;98331.34;;;10.87;35.95
40850;BME280;26571;41.610;25.380;2023-04-07T08:07:30;98323.25;;;11.28;38.01
40850;BME280;26571;41.610;25.380;2023-04-07T08:09:56;98323.94;;;11.76;37.12
40850;BME280;26571;41.610;25.380;2023-04-07T08:12:21;98318.28;;;11.87;36.01
40850;BME280;26571;41.610;25.380;2023-04-07T08:14:46;98321.91;;;11.86;35.99
40850;BME280;26571;41.610;25.380;2023-04-07T08:17:13;98319.78;;;12.05;38.22
40850;BME280;26571;41.610;25.380;2023-04-07T08:19:38;98315.44;;;12.12;36.10
40850;BME280;26571;41.610;25.380;2023-04-07T08:22:03;98312.06;;;11.80;35.97
40850;BME280;26571;41.610;25.380;2023-04-07T08:24:29;98315.09;;;11.69;36.86
40850;BME280;26571;41.610;25.380;2023-04-07T08:26:54;98322.44;;;11.82;36.03
40850;BME280;26571;41.610;25.380;2023-04-07T08:29:20;98324.84;;;11.92;36.75
40850;BME280;26571;41.610;25.380;2023-04-07T08:31:45;98308.00;;;11.93;37.50
40850;BME280;26571;41.610;25.380;2023-04-07T08:34:10;98320.50;;;11.99;36.12
40850;BME280;26571;41.610;25.380;2023-04-07T08:36:36;98326.34;;;11.63;34.67
40850;BME280;26571;41.610;25.380;2023-04-07T08:39:01;98325.94;;;11.20;35.23
40850;BME280;26571;41.610;25.380;2023-04-07T08:41:31;98334.47;;;10.99;35.91
40850;BME280;26571;41.610;25.380;2023-04-07T08:43:57;98325.34;;;10.71;35.94
40850;BME280;26571;41.610;25.380;2023-04-07T08:46:25;98325.09;;;10.41;36.37
40850;BME280;26571;41.610;25.380;2023-04-07T08:48:51;98325.25;;;10.40;36.35
40850;BME280;26571;41.610;25.380;2023-04-07T08:51:20;98318.63;;;10.60;36.16
40850;BME280;26571;41.610;25.380;2023-04-07T08:53:49;98322.63;;;10.87;35.90
40850;BME280;26571;41.610;25.380;2023-04-07T08:56:16;98319.66;;;11.29;36.94
40850;BME280;26571;41.610;25.380;2023-04-07T08:58:41;98312.28;;;11.71;37.31
40850;BME280;26571;41.610;25.380;2023-04-07T09:01:07;98317.06;;;12.13;37.14
40850;BME280;26571;41.610;25.380;2023-04-07T09:03:33;98312.09;;;12.33;34.69
40850;BME280;26571;41.610;25.380;2023-04-07T09:06:01;98308.38;;;12.57;36.59
40850;BME280;26571;41.610;25.380;2023-04-07T09:08:27;98303.25;;;13.00;35.31
40850;BME280;26571;41.610;25.380;2023-04-07T09:10:53;98307.66;;;13.43;36.90
40850;BME280;26571;41.610;25.380;2023-04-07T09:13:18;98302.94;;;13.39;32.56
40850;BME280;26571;41.610;25.380;2023-04-07T09:15:44;98304.00;;;12.93;33.23
40850;BME280;26571;41.610;25.380;2023-04-07T09:18:09;98297.94;;;13.29;35.51
40850;BME280;26571;41.610;25.380;2023-04-07T09:20:57;98303.94;;;13.59;33.13
40850;BME280;26571;41.610;25.380;2023-04-07T09:23:29;98310.59;;;13.77;33.38
40850;BME280;26571;41.610;25.380;2023-04-07T09:25:55;98300.59;;;13.51;32.20
40850;BME280;26571;41.610;25.380;2023-04-07T09:28:20;98303.25;;;13.72;36.00
40850;BME280;26571;41.610;25.380;2023-04-07T09:30:53;98289.56;;;13.90;33.86
40850;BME280;26571;41.610;25.380;2023-04-07T09:33:25;98286.38;;;13.52;33.56
40850;BME280;26571;41.610;25.380;2023-04-07T09:35:51;98281.94;;;13.37;35.03
40850;BME280;26571;41.610;25.380;2023-04-07T09:38:20;98285.41;;;13.81;33.41
40850;BME280;26571;41.610;25.380;2023-04-07T09:40:45;98277.81;;;13.50;34.18
40850;BME280;26571;41.610;25.380;2023-04-07T09:43:16;98278.63;;;13.14;35.90
40850;BME280;26571;41.610;25.380;2023-04-07T09:45:41;98277.25;;;13.18;37.95
40850;BME280;26571;41.610;25.380;2023-04-07T09:48:07;98278.44;;;13.30;36.17
40850;BME280;26571;41.610;25.380;2023-04-07T09:50:37;98275.06;;;13.58;34.84
40850;BME280;26571;41.610;25.380;2023-04-07T09:53:03;98279.13;;;14.10;35.69
40850;BME280;26571;41.610;25.380;2023-04-07T09:55:28;98275.81;;;14.29;33.69
40850;BME280;26571;41.610;25.380;2023-04-07T09:57:54;98273.22;;;14.08;36.09
40850;BME280;26571;41.610;25.380;2023-04-07T10:00:20;98281.19;;;13.86;33.70
40850;BME280;26571;41.610;25.380;2023-04-07T10:02:45;98275.72;;;13.66;35.66
40850;BME280;26571;41.610;25.380;2023-04-07T10:05:11;98266.63;;;12.97;36.39
40850;BME280;26571;41.610;25.380;2023-04-07T10:07:37;98267.75;;;12.58;37.27
40850;BME280;26571;41.610;25.380;2023-04-07T10:10:03;98270.66;;;12.63;37.89
40850;BME280;26571;41.610;25.380;2023-04-07T10:12:29;98262.66;;;12.71;36.78
40850;BME280;26571;41.610;25.380;2023-04-07T10:14:56;98258.19;;;12.72;37.88
40850;BME280;26571;41.610;25.380;2023-04-07T10:17:22;98258.53;;;13.34;36.42
40850;BME280;26571;41.610;25.380;2023-04-07T10:19:48;98256.59;;;13.43;36.22
40850;BME280;26571;41.610;25.380;2023-04-07T10:22:14;98266.66;;;13.76;35.33
40850;BME280;26571;41.610;25.380;2023-04-07T10:24:45;98260.75;;;13.16;36.45
40850;BME280;26571;41.610;25.380;2023-04-07T10:27:15;98254.53;;;13.38;37.59
40850;BME280;26571;41.610;25.380;2023-04-07T10:29:42;98257.38;;;12.71;37.80
40850;BME280;26571;41.610;25.380;2023-04-07T10:32:08;98259.00;;;12.72;39.04
40850;BME280;26571;41.610;25.380;2023-04-07T10:37:15;98260.69;;;12.44;39.59
40850;BME280;26571;41.610;25.380;2023-04-07T10:39:44;98257.19;;;11.99;41.14
40850;BME280;26571;41.610;25.380;2023-04-07T10:44:53;98257.38;;;11.74;41.65
40850;BME280;26571;41.610;25.380;2023-04-07T10:47:19;98267.88;;;11.82;42.14
40850;BME280;26571;41.610;25.380;2023-04-07T10:52:28;98259.66;;;11.77;42.09
40850;BME280;26571;41.610;25.380;2023-04-07T10:55:27;98248.38;;;12.21;42.57
40850;BME280;26571;41.610;25.380;2023-04-07T10:58:05;98257.31;;;12.35;41.61
40850;BME280;26571;41.610;25.380;2023-04-07T11:00:27;98254.47;;;12.07;42.53
40850;BME280;26571;41.610;25.380;2023-04-07T11:02:52;98252.78;;;12.44;41.33
40850;BME280;26571;41.610;25.380;2023-04-07T11:05:21;98221.97;;;12.65;40.99
40850;BME280;26571;41.610;25.380;2023-04-07T11:07:50;98241.47;;;13.01;42.03
40850;BME280;26571;41.610;25.380;2023-04-07T11:10:16;98235.69;;;12.76;40.79
40850;BME280;26571;41.610;25.380;2023-04-07T11:12:43;98237.53;;;12.75;40.65
40850;BME280;26571;41.610;25.380;2023-04-07T11:15:20;98248.38;;;12.36;41.61
40850;BME280;26571;41.610;25.380;2023-04-07T11:17:46;98233.63;;;12.56;41.40
40850;BME280;26571;41.610;25.380;2023-04-07T11:20:12;98238.56;;;12.59;40.99
40850;BME280;26571;41.610;25.380;2023-04-07T11:22:37;98231.72;;;12.65;41.44
40850;BME280;26571;41.610;25.380;2023-04-07T11:25:03;98234.34;;;12.06;41.36
40850;BME280;26571;41.610;25.380;2023-04-07T11:27:44;98228.81;;;12.01;43.85
40850;BME280;26571;41.610;25.380;2023-04-07T11:30:09;98230.25;;;12.03;42.45
40850;BME280;26571;41.610;25.380;2023-04-07T11:32:34;98222.25;;;11.97;43.17
40850;BME280;26571;41.610;25.380;2023-04-07T11:35:00;98231.53;;;11.70;43.57
40850;BME280;26571;41.610;25.380;2023-04-07T11:37:25;98220.75;;;11.79;44.90
40850;BME280;26571;41.610;25.380;2023-04-07T11:39:56;98221.34;;;11.89;45.28
40850;BME280;26571;41.610;25.380;2023-04-07T11:42:34;98226.09;;;12.09;44.06
40850;BME280;26571;41.610;25.380;2023-04-07T11:45:00;98223.88;;;11.98;45.10
40850;BME280;26571;41.610;25.380;2023-04-07T11:47:34;98215.09;;;12.20;45.08
40850;BME280;26571;41.610;25.380;2023-04-07T11:50:00;98214.16;;;12.42;44.66
40850;BME280;26571;41.610;25.380;2023-04-07T11:52:26;98224.88;;;12.56;44.67
40850;BME280;26571;41.610;25.380;2023-04-07T11:54:51;98206.06;;;12.59;44.35
40850;BME280;26571;41.610;25.380;2023-04-07T11:57:26;98221.78;;;12.52;44.77
40850;BME280;26571;41.610;25.380;2023-04-07T12:00:07;98215.69;;;12.37;44.66
40850;BME280;26571;41.610;25.380;2023-04-07T12:02:33;98214.16;;;12.28;45.65
40850;BME280;26571;41.610;25.380;2023-04-07T12:04:59;98216.34;;;12.54;45.85
40850;BME280;26571;41.610;25.380;2023-04-07T12:07:24;98202.63;;;12.44;45.69
40850;BME280;26571;41.610;25.380;2023-04-07T12:09:50;98202.84;;;12.63;45.74
40850;BME280;26571;41.610;25.380;2023-04-07T12:12:23;98212.56;;;12.63;46.53
40850;BME280;26571;41.610;25.380;2023-04-07T12:14:49;98220.44;;;12.41;46.58
40850;BME280;26571;41.610;25.380;2023-04-07T12:19:45;98211.50;;;11.98;47.37
40850;BME280;26571;41.610;25.380;2023-04-07T12:22:11;98193.03;;;11.98;48.25
40850;BME280;26571;41.610;25.380;2023-04-07T12:24:36;98192.94;;;11.92;48.79
40850;BME280;26571;41.610;25.380;2023-04-07T12:27:01;98195.94;;;12.03;49.15
40850;BME280;26571;41.610;25.380;2023-04-07T12:29:27;98195.59;;;12.06;48.72
40850;BME280;26571;41.610;25.380;2023-04-07T12:31:52;98188.34;;;12.08;48.95
40850;BME280;26571;41.610;25.380;2023-04-07T12:34:17;98198.97;;;12.15;50.14
40850;BME280;26571;41.610;25.380;2023-04-07T12:36:43;98198.97;;;12.15;49.37
40850;BME280;26571;41.610;25.380;2023-04-07T12:39:08;98190.88;;;12.16;50.01
40850;BME280;26571;41.610;25.380;2023-04-07T12:41:34;98168.97;;;11.78;50.57
40850;BME280;26571;41.610;25.380;2023-04-07T12:43:59;98183.69;;;11.96;50.72
40850;BME280;26571;41.610;25.380;2023-04-07T12:46:24;98159.09;;;11.80;51.07
40850;BME280;26571;41.610;25.380;2023-04-07T12:48:49;98167.22;;;11.94;51.32
40850;BME280;26571;41.610;25.380;2023-04-07T12:51:15;98164.88;;;12.13;48.86
40850;BME280;26571;41.610;25.380;2023-04-07T12:53:41;98164.19;;;12.26;49.49
40850;BME280;26571;41.610;25.380;2023-04-07T12:56:06;98171.78;;;12.14;51.07
40850;BME280;26571;41.610;25.380;2023-04-07T12:58:31;98164.88;;;12.13;51.01
40850;BME280;26571;41.610;25.380;2023-04-07T13:00:57;98165.47;;;12.30;51.22
40850;BME280;26571;41.610;25.380;2023-04-07T13:03:22;98173.31;;;12.09;50.45
40850;BME280;26571;41.610;25.380;2023-04-07T13:05:47;98161.22;;;12.00;52.17
40850;BME280;26571;41.610;25.380;2023-04-07T13:08:13;98176.78;;;12.24;52.41